createdAt,value
2022-10-03T00:00:17.260Z,2.10
2022-10-03T00:03:22.077Z,2.35
2022-10-03T00:05:55.473Z,2.00
2022-10-03T00:08:44.514Z,2.10
2022-10-03T00:11:29.311Z,1.90
2022-10-03T00:14:17.345Z,2.13
2022-10-03T00:17:13.769Z,2.20
2022-10-03T00:19:44.462Z,2.25
2022-10-03T00:22:37.619Z,2.25
2022-10-03T00:25:19.296Z,2.17
2022-10-03T00:28:07.284Z,2.20
2022-10-03T00:30:59.513Z,2.60
2022-10-03T00:33:55.895Z,2.17
2022-10-03T00:36:46.069Z,2.30
2022-10-03T00:39:42.734Z,2.40
2022-10-03T00:42:40.939Z,2.25
2022-10-03T00:45:18.047Z,2.15
2022-10-03T00:48:02.510Z,2.30
2022-10-03T00:50:44.398Z,2.13
2022-10-03T00:53:33.255Z,2.10
2022-10-03T00:56:21.687Z,1.90
2022-10-03T00:59:12.228Z,2.60
2022-10-03T01:01:45.870Z,1.98
2022-10-03T01:04:36.610Z,2.15
2022-10-03T01:07:41.771Z,2.00
2022-10-03T01:10:14.329Z,2.38
2022-10-03T01:12:49.139Z,2.03
2022-10-03T01:15:15.951Z,2.20
2022-10-03T01:18:10.091Z,2.35
2022-10-03T01:21:02.443Z,1.83
2022-10-03T01:24:02.948Z,2.30
2022-10-03T01:26:51.400Z,2.03
2022-10-03T01:29:39.545Z,1.85
2022-10-03T01:32:20.133Z,2.10
2022-10-03T01:35:07.004Z,1.98
2022-10-03T01:37:39.488Z,1.90
2022-10-03T01:42:42.081Z,2.13
2022-10-03T01:45:29.004Z,1.90
2022-10-03T01:48:06.269Z,2.17
2022-10-03T01:50:52.122Z,1.90
2022-10-03T01:53:26.813Z,2.10
2022-10-03T01:56:08.606Z,2.28
2022-10-03T01:59:06.694Z,1.90
2022-10-03T02:02:11.209Z,2.00
2022-10-03T02:04:53.002Z,1.60
2022-10-03T02:07:33.547Z,1.87
2022-10-03T02:10:02.853Z,2.00
2022-10-03T02:12:46.603Z,1.88
2022-10-03T02:15:28.178Z,1.77
2022-10-03T02:18:01.412Z,2.00
2022-10-03T02:20:36.147Z,1.52
2022-10-03T02:23:14.405Z,2.13
2022-10-03T02:26:05.802Z,1.73
2022-10-03T02:28:59.514Z,1.88
2022-10-03T02:31:41.448Z,1.98
2022-10-03T02:34:31.868Z,1.70
2022-10-03T02:37:11.315Z,1.80
2022-10-03T02:40:02.821Z,1.60
2022-10-03T02:42:51.478Z,1.70
2022-10-03T02:45:55.669Z,1.80
2022-10-03T02:48:43.300Z,1.98
2022-10-03T02:51:34.852Z,1.90
2022-10-03T02:54:24.955Z,2.05
2022-10-03T02:57:16.146Z,1.85
2022-10-03T03:00:06.069Z,1.90
2022-10-03T03:02:54.761Z,1.80
2022-10-03T03:05:43.047Z,1.92
2022-10-03T03:08:37.135Z,2.10
2022-10-03T03:11:28.358Z,1.60
2022-10-03T03:14:19.790Z,1.80
2022-10-03T03:17:17.644Z,1.90
2022-10-03T03:20:12.423Z,1.67
2022-10-03T03:23:03.838Z,1.58
2022-10-03T03:26:18.096Z,1.75
2022-10-03T03:28:57.044Z,1.10
2022-10-03T03:31:51.403Z,1.27
2022-10-03T03:34:26.051Z,1.27
2022-10-03T03:37:10.475Z,1.35
2022-10-03T03:39:52.553Z,1.60
2022-10-03T03:42:37.200Z,1.20
2022-10-03T03:45:08.498Z,1.40
2022-10-03T03:47:56.998Z,1.10
2022-10-03T03:50:23.779Z,1.05
2022-10-03T03:53:45.055Z,0.80
2022-10-03T03:56:38.926Z,0.98
2022-10-03T03:59:37.766Z,1.10
2022-10-03T04:02:10.618Z,1.05
2022-10-03T04:05:04.782Z,1.00
2022-10-03T04:08:19.417Z,1.23
2022-10-03T04:10:57.424Z,0.98
2022-10-03T04:13:38.899Z,0.88
2022-10-03T04:16:52.608Z,1.02
2022-10-03T04:19:28.939Z,1.10
2022-10-03T04:22:18.746Z,0.95
2022-10-03T04:24:57.738Z,1.08
2022-10-03T04:27:49.946Z,1.38
2022-10-03T04:30:20.744Z,1.27
2022-10-03T04:33:02.261Z,0.85
2022-10-03T04:36:20.037Z,0.82
2022-10-03T04:38:54.698Z,1.15
2022-10-03T04:41:45.343Z,0.70
2022-10-03T04:44:19.852Z,1.23
2022-10-03T04:47:12.380Z,1.48
2022-10-03T04:49:43.957Z,1.20
2022-10-03T04:52:43.034Z,0.90
2022-10-03T04:55:35.372Z,0.80
2022-10-03T04:58:23.333Z,1.10
2022-10-03T05:01:29.919Z,1.20
2022-10-03T05:04:11.192Z,1.65
2022-10-03T05:06:59.077Z,1.17
2022-10-03T05:09:42.811Z,1.10
2022-10-03T05:12:21.061Z,1.05
2022-10-03T05:15:21.678Z,0.85
2022-10-03T05:18:03.417Z,1.10
2022-10-03T05:20:33.707Z,1.23
2022-10-03T05:23:43.178Z,1.05
2022-10-03T05:26:45.462Z,1.75
2022-10-03T05:29:25.177Z,1.35
2022-10-03T05:32:13.585Z,1.40
2022-10-03T05:35:17.716Z,1.55
2022-10-03T05:38:24.375Z,1.48
2022-10-03T05:41:12.105Z,1.40
2022-10-03T05:43:59.366Z,1.60
2022-10-03T05:46:58.275Z,1.48
2022-10-03T05:50:00.314Z,1.30
2022-10-03T05:52:48.387Z,1.60
2022-10-03T05:55:25.821Z,1.30
2022-10-03T05:58:13.002Z,1.40
2022-10-03T06:01:22.572Z,1.50
2022-10-03T06:04:20.865Z,1.90
2022-10-03T06:07:17.754Z,1.60
2022-10-03T06:10:17.800Z,1.52
2022-10-03T06:12:59.152Z,1.83
2022-10-03T06:15:36.575Z,1.60
2022-10-03T06:18:24.376Z,2.08
2022-10-03T06:21:32.999Z,1.50
2022-10-03T06:24:13.971Z,1.40
2022-10-03T06:27:15.398Z,1.38
2022-10-03T06:29:57.191Z,1.75
2022-10-03T06:32:51.795Z,1.33
2022-10-03T06:35:37.192Z,1.77
2022-10-03T06:38:23.439Z,2.38
2022-10-03T06:41:29.347Z,2.10
2022-10-03T06:44:18.366Z,2.60
2022-10-03T06:47:08.255Z,2.30
2022-10-03T06:50:02.590Z,2.65
2022-10-03T06:52:59.131Z,2.50
2022-10-03T06:55:51.958Z,2.55
2022-10-03T07:01:12.951Z,2.70
2022-10-03T07:04:00.759Z,2.58
2022-10-03T07:06:53.237Z,2.85
2022-10-03T07:09:57.100Z,3.53
2022-10-03T07:12:35.622Z,2.88
2022-10-03T07:16:05.199Z,3.08
2022-10-03T07:18:41.000Z,2.78
2022-10-03T07:21:40.212Z,2.45
2022-10-03T07:24:25.978Z,2.50
2022-10-03T07:27:15.110Z,2.53
2022-10-03T07:30:15.183Z,2.40
2022-10-03T07:33:18.671Z,2.60
2022-10-03T07:36:47.885Z,2.50
2022-10-03T07:39:36.149Z,2.33
2022-10-03T07:42:36.737Z,2.72
2022-10-03T07:45:25.059Z,2.67
2022-10-03T07:48:28.259Z,2.88
2022-10-03T07:51:17.339Z,3.35
2022-10-03T07:54:11.068Z,2.65
2022-10-03T07:57:21.994Z,2.10
2022-10-03T08:00:25.192Z,2.47
2022-10-03T08:03:33.515Z,2.13
2022-10-03T08:06:23.609Z,2.10
2022-10-03T08:08:54.413Z,2.33
2022-10-03T08:11:51.749Z,1.88
2022-10-03T08:14:32.492Z,2.08
2022-10-03T08:17:17.715Z,2.03
2022-10-03T08:20:03.000Z,2.10
2022-10-03T08:23:16.183Z,2.22
2022-10-03T08:25:45.921Z,2.05
2022-10-03T08:28:37.089Z,2.10
2022-10-03T08:31:19.339Z,2.53
2022-10-03T08:33:51.743Z,2.15
2022-10-03T08:36:43.400Z,1.80
2022-10-03T08:39:41.136Z,2.17
2022-10-03T08:42:35.109Z,1.90
2022-10-03T08:45:27.042Z,2.08
2022-10-03T08:48:29.572Z,2.08
2022-10-03T08:51:11.383Z,2.05
2022-10-03T08:54:05.033Z,2.10
2022-10-03T08:56:50.331Z,1.92
2022-10-03T08:59:58.237Z,1.88
2022-10-03T09:02:39.529Z,2.33
2022-10-03T09:05:29.506Z,1.63
2022-10-03T09:08:23.267Z,2.22
2022-10-03T09:11:04.180Z,2.05
2022-10-03T09:13:52.772Z,1.83
2022-10-03T09:16:55.262Z,2.30
2022-10-03T09:19:49.593Z,2.00
2022-10-03T09:23:01.972Z,2.03
2022-10-03T09:25:57.379Z,1.98
2022-10-03T09:28:53.042Z,2.20
2022-10-03T09:31:25.368Z,2.10
2022-10-03T09:34:10.189Z,1.95
2022-10-03T09:37:14.754Z,1.80
2022-10-03T09:40:02.557Z,1.75
2022-10-03T09:42:47.332Z,1.98
2022-10-03T09:45:23.153Z,1.90
2022-10-03T09:48:15.163Z,1.98
2022-10-03T09:51:19.238Z,2.13
2022-10-03T09:54:23.790Z,2.05
2022-10-03T09:57:17.554Z,1.88
2022-10-03T10:00:03.339Z,1.90
2022-10-03T10:02:45.187Z,1.52
2022-10-03T10:05:45.680Z,1.85
2022-10-03T10:08:42.575Z,1.98
2022-10-03T10:11:28.084Z,1.85
2022-10-03T10:14:08.638Z,2.15
2022-10-03T10:17:06.661Z,1.60
2022-10-03T10:20:07.653Z,1.90
2022-10-03T10:23:11.233Z,1.70
2022-10-03T10:25:56.934Z,1.55
2022-10-03T10:28:26.524Z,1.80
2022-10-03T10:31:10.192Z,2.22
2022-10-03T10:34:11.628Z,1.73
2022-10-03T10:37:04.632Z,1.90
2022-10-03T10:40:10.395Z,2.03
2022-10-03T10:42:55.592Z,2.15
2022-10-03T10:46:11.828Z,1.58
2022-10-03T10:49:00.214Z,2.00
2022-10-03T10:51:28.839Z,1.60
2022-10-03T10:54:13.514Z,1.65
2022-10-03T10:57:22.627Z,1.80
2022-10-03T11:00:08.008Z,1.75
2022-10-03T11:02:46.543Z,1.80
2022-10-03T11:05:51.401Z,2.00
2022-10-03T11:08:54.967Z,2.10
2022-10-03T11:12:01.438Z,1.92
2022-10-03T11:14:46.453Z,2.13
2022-10-03T11:17:24.953Z,1.52
2022-10-03T11:20:36.384Z,1.67
2022-10-03T11:23:27.008Z,1.60
2022-10-03T11:26:12.379Z,2.00
2022-10-03T11:29:18.884Z,1.65
2022-10-03T11:32:08.395Z,1.80
2022-10-03T11:35:13.267Z,2.17
2022-10-03T11:37:47.565Z,2.15
2022-10-03T11:40:33.034Z,1.90
2022-10-03T11:43:05.742Z,1.63
2022-10-03T11:45:41.171Z,1.70
2022-10-03T11:48:40.466Z,1.70
2022-10-03T11:51:15.824Z,1.80
2022-10-03T11:54:07.437Z,2.30
2022-10-03T11:56:45.891Z,2.05
2022-10-03T11:59:29.100Z,1.67
2022-10-03T12:02:12.591Z,1.75
2022-10-03T12:05:21.234Z,1.77
2022-10-03T12:08:32.799Z,1.90
2022-10-03T12:11:18.005Z,1.73
2022-10-03T12:14:10.736Z,2.05
2022-10-03T12:17:00.054Z,2.13
2022-10-03T12:19:56.747Z,1.77
2022-10-03T12:22:50.193Z,1.70
2022-10-03T12:25:23.310Z,1.70
2022-10-03T12:28:13.046Z,2.40
2022-10-03T12:30:51.763Z,2.25
2022-10-03T12:33:45.331Z,2.00
2022-10-03T12:36:15.413Z,1.80
2022-10-03T12:38:55.850Z,2.10
2022-10-03T12:41:42.144Z,1.95
2022-10-03T12:44:27.467Z,2.00
2022-10-03T12:47:43.959Z,1.70
2022-10-03T12:50:17.799Z,2.00
2022-10-03T12:53:20.006Z,2.00
2022-10-03T12:58:31.981Z,1.95
2022-10-03T13:01:12.867Z,2.05
2022-10-03T13:04:00.621Z,2.15
2022-10-03T13:07:03.455Z,1.83
2022-10-03T13:09:45.321Z,1.98
2022-10-03T13:12:27.852Z,1.70
2022-10-03T13:15:32.797Z,1.98
2022-10-03T13:18:33.348Z,1.58
2022-10-03T13:21:41.082Z,1.60
2022-10-03T13:24:22.471Z,1.77
2022-10-03T13:27:04.091Z,1.80
2022-10-03T13:30:05.421Z,2.20
2022-10-03T13:32:45.603Z,2.15
2022-10-03T13:35:50.938Z,2.13
2022-10-03T13:38:23.935Z,1.98
2022-10-03T13:41:24.136Z,2.50
2022-10-03T13:44:00.699Z,2.13
2022-10-03T13:46:54.962Z,2.10
2022-10-03T13:49:34.433Z,1.90
2022-10-03T13:52:15.554Z,1.60
2022-10-03T13:54:51.135Z,2.33
2022-10-03T13:57:25.958Z,1.80
2022-10-03T14:00:15.048Z,2.58
2022-10-03T14:03:11.214Z,2.22
2022-10-03T14:06:12.219Z,1.80
2022-10-03T14:09:06.934Z,2.05
2022-10-03T14:12:01.083Z,1.67
2022-10-03T14:14:39.783Z,2.15
2022-10-03T14:17:24.554Z,1.58
2022-10-03T14:20:05.540Z,2.17
2022-10-03T14:22:48.928Z,1.38
2022-10-03T14:25:23.848Z,2.33
2022-10-03T14:28:34.928Z,1.65
2022-10-03T14:31:09.327Z,1.85
2022-10-03T14:34:08.404Z,1.52
2022-10-03T14:36:50.188Z,2.15
2022-10-03T14:39:28.831Z,2.00
2022-10-03T14:42:18.025Z,2.20
2022-10-03T14:44:48.991Z,1.70
2022-10-03T14:47:19.787Z,1.88
2022-10-03T14:49:59.443Z,1.90
2022-10-03T14:52:44.912Z,1.80
2022-10-03T14:55:27.580Z,1.83
2022-10-03T14:58:10.612Z,1.85
2022-10-03T15:00:44.003Z,2.63
2022-10-03T15:03:21.534Z,2.20
2022-10-03T15:06:00.396Z,2.15
2022-10-03T15:08:37.891Z,2.05
2022-10-03T15:11:06.525Z,1.90
2022-10-03T15:14:02.659Z,2.20
2022-10-03T15:16:34.548Z,1.73
2022-10-03T15:19:08.723Z,2.38
2022-10-03T15:21:35.957Z,1.80
2022-10-03T15:24:08.453Z,1.88
2022-10-03T15:26:37.342Z,1.98
2022-10-03T15:29:07.229Z,2.13
2022-10-03T15:31:45.673Z,2.20
2022-10-03T15:34:16.383Z,2.10
2022-10-03T15:36:48.839Z,2.00
2022-10-03T15:39:25.189Z,2.08
2022-10-03T15:42:10.211Z,2.38
2022-10-03T15:44:40.064Z,1.90
2022-10-03T15:47:17.011Z,2.42
2022-10-03T15:49:59.478Z,1.90
2022-10-03T15:52:43.326Z,1.85
2022-10-03T15:55:20.336Z,2.33
2022-10-03T15:57:51.053Z,2.20
2022-10-03T16:00:26.966Z,2.15
2022-10-03T16:03:08.286Z,2.20
2022-10-03T16:05:36.252Z,2.13
2022-10-03T16:08:09.195Z,1.98
2022-10-03T16:11:09.094Z,2.30
2022-10-03T16:13:39.570Z,2.05
2022-10-03T16:16:34.191Z,2.22
2022-10-03T16:19:32.154Z,2.20
2022-10-03T16:22:21.668Z,1.95
2022-10-03T16:24:57.475Z,2.00
2022-10-03T16:27:27.065Z,1.95
2022-10-03T16:30:16.938Z,1.83
2022-10-03T16:33:02.922Z,2.08
2022-10-03T16:35:50.485Z,2.20
2022-10-03T16:38:34.439Z,2.55
2022-10-03T16:41:13.044Z,2.17
2022-10-03T16:43:41.219Z,1.88
2022-10-03T16:46:19.662Z,1.73
2022-10-03T16:49:05.390Z,1.92
2022-10-03T16:51:45.514Z,1.85
2022-10-03T16:54:14.939Z,2.00
2022-10-03T16:56:47.612Z,2.10
2022-10-03T16:59:19.103Z,1.98
2022-10-03T17:01:55.537Z,2.05
2022-10-03T17:04:28.110Z,1.77
2022-10-03T17:07:01.456Z,1.88
2022-10-03T17:09:41.079Z,1.90
2022-10-03T17:12:16.401Z,2.03
2022-10-03T17:14:44.672Z,2.00
2022-10-03T17:17:30.275Z,2.05
2022-10-03T17:20:14.728Z,2.13
2022-10-03T17:22:45.368Z,2.45
2022-10-03T17:25:18.547Z,2.30
2022-10-03T17:27:49.520Z,2.65
2022-10-03T17:30:38.937Z,2.38
2022-10-03T17:33:20.139Z,3.30
2022-10-03T17:36:21.763Z,2.58
2022-10-03T17:39:02.685Z,2.78
2022-10-03T17:41:51.826Z,2.88
2022-10-03T17:44:52.248Z,2.25
2022-10-03T17:47:26.782Z,2.22
2022-10-03T17:50:23.617Z,2.70
2022-10-03T17:52:52.905Z,2.20
2022-10-03T17:55:30.431Z,2.03
2022-10-03T17:58:04.333Z,1.98
2022-10-03T18:01:01.990Z,2.10
2022-10-03T18:03:39.472Z,1.95
2022-10-03T18:06:33.368Z,2.13
2022-10-03T18:09:20.894Z,2.00
2022-10-03T18:11:49.914Z,2.20
2022-10-03T18:14:30.193Z,2.20
2022-10-03T18:17:09.928Z,1.90
2022-10-03T18:19:39.935Z,2.17
2022-10-03T18:22:25.680Z,2.08
2022-10-03T18:25:34.213Z,2.25
2022-10-03T18:28:21.153Z,1.80
2022-10-03T18:31:05.342Z,1.85
2022-10-03T18:33:42.649Z,1.80
2022-10-03T18:36:28.815Z,2.08
2022-10-03T18:39:07.796Z,3.55
2022-10-03T18:41:34.600Z,3.60
2022-10-03T18:44:02.056Z,3.88
2022-10-03T18:46:32.160Z,3.53
2022-10-03T18:49:33.010Z,3.05
2022-10-03T18:52:19.046Z,3.23
2022-10-03T18:55:03.683Z,2.58
2022-10-03T18:57:49.584Z,2.50
2022-10-03T19:00:20.511Z,2.70
2022-10-03T19:02:54.975Z,2.70
2022-10-03T19:05:49.006Z,2.88
2022-10-03T19:08:27.047Z,2.80
2022-10-03T19:10:56.096Z,2.70
2022-10-03T19:13:26.014Z,2.88
2022-10-03T19:16:17.807Z,2.78
2022-10-03T19:19:02.974Z,3.20
2022-10-03T19:21:36.540Z,2.40
2022-10-03T19:24:53.418Z,2.55
2022-10-03T19:27:18.456Z,2.30
2022-10-03T19:29:52.450Z,2.47
2022-10-03T19:32:28.903Z,2.58
2022-10-03T19:35:01.710Z,1.90
2022-10-03T19:37:31.601Z,2.20
2022-10-03T19:39:59.083Z,2.40
2022-10-03T19:42:47.539Z,2.63
2022-10-03T19:45:16.394Z,2.15
2022-10-03T19:47:58.006Z,2.53
2022-10-03T19:50:31.394Z,2.70
2022-10-03T19:52:58.460Z,2.80
2022-10-03T19:55:32.788Z,3.10
2022-10-03T19:58:04.200Z,2.70
2022-10-03T20:00:37.325Z,3.00
2022-10-03T20:03:23.277Z,2.83
2022-10-03T20:06:17.596Z,2.78
2022-10-03T20:09:03.928Z,2.65
2022-10-03T20:11:44.649Z,2.50
2022-10-03T20:14:26.725Z,2.35
2022-10-03T20:17:02.124Z,2.45
2022-10-03T20:19:54.749Z,2.50
2022-10-03T20:22:26.143Z,2.50
2022-10-03T20:24:54.824Z,2.57
2022-10-03T20:27:42.284Z,2.25
2022-10-03T20:30:30.232Z,2.10
2022-10-03T20:32:59.592Z,2.63
2022-10-03T20:35:41.598Z,2.33
2022-10-03T20:38:38.844Z,2.47
2022-10-03T20:41:09.885Z,2.20
2022-10-03T20:43:46.700Z,2.20
2022-10-03T20:46:22.661Z,2.60
2022-10-03T20:49:00.827Z,2.03
2022-10-03T20:51:43.175Z,1.90
2022-10-03T20:54:13.672Z,2.20
2022-10-03T20:57:14.136Z,2.38
2022-10-03T21:00:07.096Z,2.72
2022-10-03T21:02:41.212Z,3.00
2022-10-03T21:05:17.857Z,2.67
2022-10-03T21:07:51.745Z,2.33
2022-10-03T21:10:29.823Z,2.70
2022-10-03T21:13:13.352Z,2.60
2022-10-03T21:15:47.620Z,2.35
2022-10-03T21:18:24.900Z,2.30
2022-10-03T21:21:07.289Z,1.92
2022-10-03T21:26:09.296Z,2.00
2022-10-03T21:28:37.915Z,2.08
2022-10-03T21:31:16.542Z,2.28
2022-10-03T21:33:54.535Z,2.10
2022-10-03T21:36:38.115Z,2.10
2022-10-03T21:39:27.696Z,2.30
2022-10-03T21:42:09.689Z,2.10
2022-10-03T21:44:56.615Z,2.60
2022-10-03T21:47:47.866Z,2.80
2022-10-03T21:50:42.980Z,2.78
2022-10-03T21:53:18.387Z,2.88
2022-10-03T21:56:04.246Z,2.88
2022-10-03T21:59:13.563Z,2.75
2022-10-03T22:01:49.756Z,3.10
2022-10-03T22:04:35.548Z,2.85
2022-10-03T22:07:27.590Z,2.70
2022-10-03T22:09:55.917Z,3.05
2022-10-03T22:12:26.707Z,3.35
2022-10-03T22:14:57.036Z,3.85
2022-10-03T22:17:31.914Z,3.10
2022-10-03T22:20:17.071Z,3.15
2022-10-03T22:22:53.436Z,3.10
2022-10-03T22:25:45.664Z,3.20
2022-10-03T22:28:27.680Z,3.17
2022-10-03T22:31:06.710Z,3.35
2022-10-03T22:33:45.259Z,3.15
2022-10-03T22:36:12.840Z,3.13
2022-10-03T22:38:40.953Z,3.15
2022-10-03T22:41:15.578Z,3.08
2022-10-03T22:43:43.692Z,3.17
2022-10-03T22:46:18.329Z,3.28
2022-10-03T22:48:49.909Z,3.42
2022-10-03T22:51:19.216Z,3.30
2022-10-03T22:53:50.187Z,3.15
2022-10-03T22:56:38.758Z,2.80
2022-10-03T22:59:09.360Z,2.97
2022-10-03T23:01:37.676Z,2.85
2022-10-03T23:04:06.915Z,2.80
2022-10-03T23:06:36.619Z,2.78
2022-10-03T23:09:22.823Z,2.70
2022-10-03T23:11:52.339Z,2.40
2022-10-03T23:14:28.350Z,2.33
2022-10-03T23:17:13.773Z,2.63
2022-10-03T23:19:49.155Z,2.60
2022-10-03T23:22:18.612Z,2.60
2022-10-03T23:24:58.623Z,2.80
2022-10-03T23:27:47.999Z,3.00
2022-10-03T23:30:18.620Z,2.83
2022-10-03T23:32:48.406Z,3.17
2022-10-03T23:35:31.142Z,2.90
2022-10-03T23:37:59.918Z,2.83
2022-10-03T23:40:38.263Z,3.13
2022-10-03T23:43:27.137Z,2.72
2022-10-03T23:46:03.779Z,3.00
2022-10-03T23:48:39.579Z,2.60
2022-10-03T23:51:12.393Z,2.63
2022-10-03T23:53:43.339Z,2.90
2022-10-03T23:56:21.941Z,3.08
2022-10-03T23:59:02.518Z,2.80
